createdAt,value
2019-06-10T00:01:21.325Z,3.53
2019-06-10T00:03:51.842Z,4.07
2019-06-10T00:06:21.256Z,5.23
2019-06-10T00:08:50.722Z,8.13
2019-06-10T00:11:21.275Z,4.20
2019-06-10T00:13:50.806Z,8.07
2019-06-10T00:16:20.893Z,5.13
2019-06-10T00:18:51.070Z,10.00
2019-06-10T00:21:21.721Z,2.97
2019-06-10T00:23:51.782Z,4.67
2019-06-10T00:26:21.651Z,7.33
2019-06-10T00:28:51.367Z,6.93
2019-06-10T00:31:20.871Z,7.00
2019-06-10T00:33:51.983Z,3.93
2019-06-10T00:36:21.520Z,4.50
2019-06-10T00:38:51.700Z,5.10
2019-06-10T00:41:21.889Z,6.67
2019-06-10T00:43:51.765Z,4.83
2019-06-10T00:46:21.348Z,4.97
2019-06-10T00:48:51.053Z,4.20
2019-06-10T00:51:20.925Z,5.30
2019-06-10T00:53:51.320Z,4.63
2019-06-10T00:56:21.621Z,7.77
2019-06-10T00:58:51.392Z,4.93
2019-06-10T01:01:22.009Z,4.23
2019-06-10T01:03:51.654Z,4.30
2019-06-10T01:06:21.498Z,4.87
2019-06-10T01:08:51.358Z,6.17
2019-06-10T01:11:26.691Z,5.10
2019-06-10T01:13:51.500Z,3.87
2019-06-10T01:16:21.734Z,5.70
2019-06-10T01:18:53.452Z,5.93
2019-06-10T01:21:22.102Z,3.63
2019-06-10T01:23:51.292Z,5.47
2019-06-10T01:26:21.520Z,4.90
2019-06-10T01:28:51.652Z,4.03
2019-06-10T01:31:24.237Z,3.73
2019-06-10T01:33:52.017Z,5.83
2019-06-10T01:36:21.306Z,4.73
2019-06-10T01:38:51.179Z,8.17
2019-06-10T01:41:21.386Z,6.20
2019-06-10T01:43:51.411Z,5.63
2019-06-10T01:46:21.239Z,4.73
2019-06-10T01:48:52.189Z,7.00
2019-06-10T01:51:21.681Z,8.90
2019-06-10T01:53:51.420Z,3.87
2019-06-10T01:56:21.380Z,7.80
2019-06-10T01:58:51.496Z,3.43
2019-06-10T02:01:41.295Z,4.47
2019-06-10T02:04:13.106Z,6.03
2019-06-10T02:06:41.630Z,6.53
2019-06-10T02:09:13.411Z,3.77
2019-06-10T02:11:41.750Z,8.97
2019-06-10T02:14:14.626Z,3.57
2019-06-10T02:16:41.876Z,2.83
2019-06-10T02:19:14.153Z,6.83
2019-06-10T02:21:41.995Z,2.70
2019-06-10T02:24:13.194Z,5.20
2019-06-10T02:29:14.419Z,5.87
2019-06-10T02:31:43.962Z,5.07
2019-06-10T02:34:18.362Z,3.77
2019-06-10T02:36:44.729Z,4.50
2019-06-10T02:39:21.476Z,4.03
2019-06-10T02:41:45.102Z,6.03
2019-06-10T02:44:18.465Z,5.80
2019-06-10T02:46:45.285Z,3.97
2019-06-10T02:49:30.137Z,7.83
2019-06-10T02:51:45.356Z,3.67
2019-06-10T02:54:16.891Z,5.27
2019-06-10T02:56:45.620Z,5.30
2019-06-10T02:59:16.135Z,4.93
2019-06-10T03:01:45.766Z,3.60
2019-06-10T03:04:16.347Z,3.60
2019-06-10T03:06:45.876Z,2.57
2019-06-10T03:09:16.523Z,4.10
2019-06-10T03:11:45.960Z,2.97
2019-06-10T03:14:15.708Z,4.13
2019-06-10T03:16:52.894Z,5.80
2019-06-10T03:19:39.634Z,8.90
2019-06-10T03:21:53.034Z,5.77
2019-06-10T03:24:23.968Z,5.47
2019-06-10T03:26:53.177Z,6.33
2019-06-10T03:29:23.724Z,4.77
2019-06-10T03:31:55.229Z,6.37
2019-06-10T03:34:35.376Z,5.67
2019-06-10T03:36:54.944Z,5.07
2019-06-10T03:39:26.892Z,6.23
2019-06-10T03:41:55.063Z,3.27
2019-06-10T03:44:26.368Z,6.67
2019-06-10T03:46:55.160Z,4.97
2019-06-10T03:49:27.037Z,4.87
2019-06-10T03:51:55.232Z,5.00
2019-06-10T03:54:27.711Z,8.33
2019-06-10T03:56:55.391Z,4.60
2019-06-10T03:59:26.501Z,6.47
2019-06-10T04:01:55.436Z,4.50
2019-06-10T04:04:25.582Z,6.33
2019-06-10T04:06:55.622Z,7.17
2019-06-10T04:09:25.857Z,3.97
2019-06-10T04:11:55.812Z,5.27
2019-06-10T04:14:26.452Z,3.40
2019-06-10T04:16:55.896Z,6.97
2019-06-10T04:19:26.832Z,5.97
2019-06-10T04:21:56.026Z,3.73
2019-06-10T04:24:26.626Z,5.27
2019-06-10T04:26:56.260Z,7.03
2019-06-10T04:29:27.107Z,5.67
2019-06-10T04:31:56.575Z,2.73
2019-06-10T04:34:28.574Z,3.70
2019-06-10T04:36:56.818Z,7.23
2019-06-10T04:39:27.367Z,4.03
2019-06-10T04:41:56.984Z,5.80
2019-06-10T04:44:27.527Z,4.13
2019-06-10T04:46:57.099Z,4.73
2019-06-10T04:49:27.081Z,7.97
2019-06-10T04:51:57.169Z,6.13
2019-06-10T04:54:27.030Z,3.80
2019-06-10T04:56:57.260Z,4.30
2019-06-10T04:59:28.764Z,3.40
2019-06-10T05:01:57.418Z,5.80
2019-06-10T05:04:28.144Z,8.00
2019-06-10T05:06:57.477Z,5.27
2019-06-10T05:09:28.811Z,5.67
2019-06-10T05:11:57.567Z,3.53
2019-06-10T05:14:28.737Z,4.47
2019-06-10T05:16:57.826Z,5.87
2019-06-10T05:19:27.900Z,7.17
2019-06-10T05:21:58.084Z,4.60
2019-06-10T05:24:29.593Z,6.97
2019-06-10T05:26:58.258Z,10.27
2019-06-10T05:29:28.363Z,5.57
2019-06-10T05:31:58.353Z,6.20
2019-06-10T05:34:28.779Z,5.73
2019-06-10T05:36:58.508Z,5.07
2019-06-10T05:39:29.173Z,5.80
2019-06-10T05:41:59.469Z,5.00
2019-06-10T05:44:29.931Z,7.43
2019-06-10T05:46:59.248Z,6.03
2019-06-10T05:49:29.220Z,5.83
2019-06-10T05:51:58.831Z,7.27
2019-06-10T05:54:29.114Z,7.40
2019-06-10T05:56:58.437Z,8.23
2019-06-10T05:59:27.648Z,9.70
2019-06-10T06:01:56.949Z,7.30
2019-06-10T06:04:26.412Z,7.67
2019-06-10T06:06:55.705Z,7.17
2019-06-10T06:09:25.133Z,6.40
2019-06-10T06:11:54.449Z,5.40
2019-06-10T06:14:23.645Z,8.37
2019-06-10T06:16:53.379Z,7.03
2019-06-10T06:19:23.123Z,6.03
2019-06-10T06:21:53.082Z,6.90
2019-06-10T06:24:22.331Z,7.17
2019-06-10T06:26:53.447Z,5.27
2019-06-10T06:29:22.437Z,5.00
2019-06-10T06:31:52.257Z,6.67
2019-06-10T06:34:22.556Z,4.73
2019-06-10T06:36:52.946Z,6.50
2019-06-10T06:39:24.265Z,6.53
2019-06-10T06:41:53.072Z,7.77
2019-06-10T06:44:23.414Z,6.93
2019-06-10T06:46:53.316Z,10.67
2019-06-10T06:49:23.200Z,8.60
2019-06-10T06:51:58.313Z,5.63
2019-06-10T06:54:23.476Z,6.20
2019-06-10T06:56:53.509Z,7.30
2019-06-10T06:59:22.893Z,6.93
2019-06-10T07:01:52.544Z,8.93
2019-06-10T07:04:23.540Z,9.27
2019-06-10T07:06:55.680Z,7.33
2019-06-10T07:09:25.062Z,6.67
2019-06-10T07:11:55.939Z,7.93
2019-06-10T07:14:27.513Z,6.87
2019-06-10T07:16:56.746Z,9.53
2019-06-10T07:19:25.951Z,7.17
2019-06-10T07:22:08.751Z,7.00
2019-06-10T07:24:26.149Z,8.07
2019-06-10T07:26:55.360Z,9.67
2019-06-10T07:29:24.791Z,6.73
2019-06-10T07:31:54.089Z,8.20
2019-06-10T07:34:23.309Z,7.93
2019-06-10T07:36:52.596Z,9.70
2019-06-10T07:39:22.698Z,9.63
2019-06-10T07:41:52.871Z,8.97
2019-06-10T07:44:22.746Z,7.90
2019-06-10T07:46:53.066Z,8.67
2019-06-10T07:49:23.781Z,7.93
2019-06-10T07:51:53.178Z,7.50
2019-06-10T07:54:23.075Z,12.10
2019-06-10T07:56:53.650Z,8.23
2019-06-10T07:59:23.401Z,7.23
2019-06-10T08:01:55.163Z,6.10
2019-06-10T08:04:23.776Z,11.13
2019-06-10T08:06:53.191Z,5.33
2019-06-10T08:09:22.790Z,5.80
2019-06-10T08:11:53.261Z,6.60
2019-06-10T08:14:22.720Z,7.03
2019-06-10T08:16:53.157Z,8.73
2019-06-10T08:19:34.543Z,7.90
2019-06-10T08:21:54.131Z,6.60
2019-06-10T08:24:23.321Z,6.37
2019-06-10T08:26:53.082Z,7.00
2019-06-10T08:29:23.423Z,7.07
2019-06-10T08:31:53.381Z,4.80
2019-06-10T08:34:22.751Z,6.03
2019-06-10T08:36:54.364Z,8.63
2019-06-10T08:39:23.236Z,5.50
2019-06-10T08:41:52.909Z,10.60
2019-06-10T08:44:23.130Z,9.53
2019-06-10T08:46:52.617Z,6.00
2019-06-10T08:49:23.857Z,8.93
2019-06-10T08:51:53.600Z,7.43
2019-06-10T08:54:23.510Z,6.43
2019-06-10T08:56:53.990Z,6.90
2019-06-10T08:59:23.749Z,5.83
2019-06-10T09:01:56.906Z,6.73
2019-06-10T09:04:24.399Z,7.47
2019-06-10T09:06:53.883Z,5.60
2019-06-10T09:09:23.234Z,5.43
2019-06-10T09:11:54.588Z,8.63
2019-06-10T09:14:23.615Z,5.00
2019-06-10T09:16:54.582Z,6.97
2019-06-10T09:19:24.052Z,6.07
2019-06-10T09:21:56.291Z,5.33
2019-06-10T09:24:25.059Z,5.20
2019-06-10T09:26:55.473Z,5.93
2019-06-10T09:29:24.825Z,5.87
2019-06-10T09:31:55.921Z,5.70
2019-06-10T09:34:24.972Z,5.47
2019-06-10T09:36:56.840Z,6.23
2019-06-10T09:39:25.140Z,7.47
2019-06-10T09:42:02.376Z,4.30
2019-06-10T09:44:25.225Z,5.63
2019-06-10T09:46:56.047Z,5.77
2019-06-10T09:49:27.107Z,9.10
2019-06-10T09:51:57.618Z,5.03
2019-06-10T09:54:27.512Z,7.37
2019-06-10T09:56:57.565Z,3.23
2019-06-10T09:59:27.380Z,6.50
2019-06-10T10:01:58.907Z,5.53
2019-06-10T10:04:28.150Z,4.70
2019-06-10T10:06:57.983Z,4.13
2019-06-10T10:09:27.598Z,4.30
2019-06-10T10:11:57.284Z,6.23
2019-06-10T10:14:26.705Z,7.37
2019-06-10T10:17:00.336Z,6.90
2019-06-10T10:19:27.882Z,5.43
2019-06-10T10:21:58.568Z,3.47
2019-06-10T10:24:29.065Z,5.13
2019-06-10T10:27:01.777Z,8.13
2019-06-10T10:29:32.692Z,5.13
2019-06-10T10:32:02.600Z,5.08
2019-06-10T10:34:33.491Z,4.40
2019-06-10T10:37:05.635Z,4.35
2019-06-10T10:39:35.997Z,5.05
2019-06-10T10:42:06.762Z,3.58
2019-06-10T10:44:36.448Z,4.20
2019-06-10T10:47:06.665Z,4.65
2019-06-10T10:49:36.329Z,6.53
2019-06-10T10:52:06.271Z,3.55
2019-06-10T10:54:36.732Z,5.75
2019-06-10T10:57:06.619Z,5.87
2019-06-10T10:59:36.256Z,8.60
2019-06-10T11:02:06.199Z,7.00
2019-06-10T11:04:38.442Z,2.98
2019-06-10T11:07:09.868Z,3.17
2019-06-10T11:09:42.337Z,4.37
2019-06-10T11:12:12.904Z,5.45
2019-06-10T11:14:54.948Z,3.45
2019-06-10T11:17:23.408Z,5.67
2019-06-10T11:20:14.144Z,7.93
2019-06-10T11:22:43.456Z,3.90
2019-06-10T11:25:13.185Z,3.87
2019-06-10T11:27:43.160Z,5.27
2019-06-10T11:30:12.588Z,4.80
2019-06-10T11:32:50.683Z,6.20
2019-06-10T11:35:16.521Z,4.43
2019-06-10T11:37:46.805Z,4.03
2019-06-10T11:40:16.447Z,4.90
2019-06-10T11:42:46.302Z,6.87
2019-06-10T11:45:15.972Z,7.60
2019-06-10T11:47:45.257Z,5.83
2019-06-10T11:50:16.445Z,5.90
2019-06-10T11:52:45.683Z,5.10
2019-06-10T11:55:19.154Z,5.40
2019-06-10T11:57:47.768Z,5.53
2019-06-10T12:00:17.587Z,4.77
2019-06-10T12:02:46.842Z,4.67
2019-06-10T12:05:20.496Z,8.07
2019-06-10T12:07:51.860Z,6.13
2019-06-10T12:10:23.353Z,4.37
2019-06-10T12:12:56.429Z,4.97
2019-06-10T12:15:23.946Z,7.33
2019-06-10T12:18:01.859Z,4.90
2019-06-10T12:20:24.504Z,5.23
2019-06-10T12:22:57.910Z,6.20
2019-06-10T12:25:32.514Z,6.97
2019-06-10T12:27:59.322Z,5.23
2019-06-10T12:30:27.288Z,7.53
2019-06-10T12:32:59.129Z,6.83
2019-06-10T12:35:27.359Z,4.90
2019-06-10T12:37:59.514Z,6.30
2019-06-10T12:40:27.483Z,4.33
2019-06-10T12:42:58.325Z,9.23
2019-06-10T12:45:27.825Z,6.37
2019-06-10T12:47:58.482Z,3.83
2019-06-10T12:50:28.144Z,4.50
2019-06-10T12:52:57.890Z,5.97
2019-06-10T12:55:39.305Z,4.10
2019-06-10T12:57:59.880Z,7.90
2019-06-10T13:00:33.184Z,5.07
2019-06-10T13:03:03.801Z,6.97
2019-06-10T13:05:33.269Z,3.37
2019-06-10T13:08:05.786Z,5.70
2019-06-10T13:10:39.424Z,6.00
2019-06-10T13:13:09.334Z,5.90
2019-06-10T13:15:38.587Z,4.57
2019-06-10T13:18:13.465Z,5.23
2019-06-10T13:20:38.885Z,5.63
2019-06-10T13:23:20.442Z,6.67
2019-06-10T13:25:51.248Z,6.17
2019-06-10T13:28:10.405Z,6.60
2019-06-10T13:30:42.644Z,6.13
2019-06-10T13:33:14.458Z,8.17
2019-06-10T13:35:44.300Z,8.77
2019-06-10T13:38:13.989Z,5.67
2019-06-10T13:40:43.694Z,9.17
2019-06-10T13:43:13.541Z,4.37
2019-06-10T13:45:43.130Z,6.23
2019-06-10T13:48:14.856Z,6.97
2019-06-10T13:50:43.261Z,5.07
2019-06-10T13:53:13.529Z,6.67
2019-06-10T13:55:43.713Z,6.93
2019-06-10T13:58:14.666Z,7.53
2019-06-10T14:00:46.878Z,5.93
2019-06-10T14:03:16.307Z,7.10
2019-06-10T14:05:45.646Z,6.25
2019-06-10T14:08:15.379Z,7.57
2019-06-10T14:10:44.809Z,4.55
2019-06-10T14:13:15.369Z,5.15
2019-06-10T14:15:45.354Z,5.50
2019-06-10T14:18:15.334Z,5.87
2019-06-10T14:20:45.075Z,4.50
2019-06-10T14:23:17.602Z,4.08
2019-06-10T14:25:45.177Z,6.85
2019-06-10T14:28:32.254Z,5.78
2019-06-10T14:30:45.416Z,9.50
2019-06-10T14:33:16.678Z,4.53
2019-06-10T14:35:45.660Z,5.17
2019-06-10T14:38:15.891Z,4.17
2019-06-10T14:40:45.229Z,4.05
2019-06-10T14:43:16.215Z,6.00
2019-06-10T14:45:45.555Z,5.25
2019-06-10T14:48:17.235Z,6.95
2019-06-10T14:50:45.608Z,6.55
2019-06-10T14:53:16.814Z,8.08
2019-06-10T14:55:45.660Z,3.47
2019-06-10T14:58:18.655Z,6.55
2019-06-10T15:00:45.821Z,5.37
2019-06-10T15:03:19.021Z,8.05
2019-06-10T15:05:45.924Z,6.03
2019-06-10T15:08:17.114Z,5.27
2019-06-10T15:10:45.999Z,4.63
2019-06-10T15:13:16.087Z,5.00
2019-06-10T15:15:45.804Z,4.80
2019-06-10T15:18:17.992Z,7.70
2019-06-10T15:20:45.948Z,7.00
2019-06-10T15:23:17.369Z,5.73
2019-06-10T15:25:52.426Z,9.63
2019-06-10T15:28:17.644Z,6.37
2019-06-10T15:30:47.613Z,5.73
2019-06-10T15:33:18.522Z,5.03
2019-06-10T15:35:48.292Z,5.08
2019-06-10T15:38:18.854Z,4.47
2019-06-10T15:40:48.389Z,5.08
2019-06-10T15:43:18.064Z,6.72
2019-06-10T15:45:47.433Z,7.47
2019-06-10T15:48:18.418Z,4.70
2019-06-10T15:50:47.491Z,5.40
2019-06-10T15:53:18.672Z,4.97
2019-06-10T15:56:10.350Z,6.65
2019-06-10T15:58:19.871Z,4.22
2019-06-10T16:00:49.309Z,4.67
2019-06-10T16:03:19.307Z,5.78
2019-06-10T16:05:49.419Z,6.20
2019-06-10T16:08:18.661Z,6.20
2019-06-10T16:10:47.824Z,6.97
2019-06-10T16:13:17.068Z,4.67
2019-06-10T16:15:46.769Z,7.20
2019-06-10T16:18:17.109Z,4.70
2019-06-10T16:20:46.869Z,7.57
2019-06-10T16:23:16.120Z,7.40
2019-06-10T16:25:45.411Z,5.43
2019-06-10T16:28:15.888Z,9.37
2019-06-10T16:30:45.121Z,7.53
2019-06-10T16:33:14.846Z,6.40
2019-06-10T16:35:44.664Z,4.90
2019-06-10T16:38:14.885Z,6.00
2019-06-10T16:40:44.044Z,8.60
2019-06-10T16:43:13.297Z,6.80
2019-06-10T16:45:43.273Z,6.47
2019-06-10T16:48:13.175Z,6.83
2019-06-10T16:50:42.732Z,7.97
2019-06-10T16:53:13.638Z,5.93
2019-06-10T16:55:43.078Z,8.93
2019-06-10T16:58:13.040Z,5.27
2019-06-10T17:00:43.251Z,5.57
2019-06-10T17:03:12.850Z,6.03
2019-06-10T17:05:42.752Z,6.63
2019-06-10T17:08:12.667Z,7.00
2019-06-10T17:10:43.502Z,7.10
2019-06-10T17:13:14.540Z,6.37
2019-06-10T17:15:43.846Z,4.77
2019-06-10T17:18:13.201Z,6.53
2019-06-10T17:20:43.074Z,10.00
2019-06-10T17:23:30.630Z,7.57
2019-06-10T17:25:57.029Z,9.83
2019-06-10T17:28:30.832Z,8.80
2019-06-10T17:30:57.957Z,6.27
2019-06-10T17:33:28.942Z,6.90
2019-06-10T17:35:58.124Z,7.10
2019-06-10T17:38:27.353Z,7.80
2019-06-10T17:40:56.533Z,9.60
2019-06-10T17:43:25.764Z,8.30
2019-06-10T17:45:55.057Z,10.13
2019-06-10T17:48:25.936Z,6.63
2019-06-10T17:50:55.100Z,7.10
2019-06-10T17:53:24.468Z,8.07
2019-06-10T17:55:53.646Z,9.73
2019-06-10T17:58:33.456Z,7.03
2019-06-10T18:00:53.712Z,7.07
2019-06-10T18:03:24.642Z,11.17
2019-06-10T18:05:53.801Z,8.40
2019-06-10T18:08:24.451Z,8.43
2019-06-10T18:10:53.915Z,8.07
2019-06-10T18:13:24.751Z,9.17
2019-06-10T18:15:54.126Z,11.07
2019-06-10T18:18:24.215Z,6.97
2019-06-10T18:20:53.845Z,6.17
2019-06-10T18:23:24.835Z,6.27
2019-06-10T18:25:54.226Z,10.47
2019-06-10T18:28:24.871Z,6.13
2019-06-10T18:30:54.361Z,7.50
2019-06-10T18:33:23.593Z,9.73
2019-06-10T18:35:53.223Z,8.40
2019-06-10T18:38:22.748Z,7.10
2019-06-10T18:40:53.566Z,11.93
2019-06-10T18:43:23.199Z,8.30
2019-06-10T18:45:53.233Z,9.93
2019-06-10T18:48:23.243Z,11.77
2019-06-10T18:50:53.268Z,9.63
2019-06-10T18:53:23.735Z,7.40
2019-06-10T18:55:54.855Z,8.47
2019-06-10T18:58:23.895Z,6.93
2019-06-10T19:01:00.647Z,6.07
2019-06-10T19:03:24.059Z,8.37
2019-06-10T19:05:53.293Z,8.40
2019-06-10T19:08:22.635Z,9.63
2019-06-10T19:10:53.560Z,7.17
2019-06-10T19:13:22.888Z,10.03
2019-06-10T19:15:53.093Z,8.37
2019-06-10T19:18:23.246Z,10.13
2019-06-10T19:20:53.578Z,12.57
2019-06-10T19:23:23.083Z,9.37
2019-06-10T19:25:52.699Z,9.80
2019-06-10T19:28:22.912Z,8.00
2019-06-10T19:30:53.785Z,10.27
2019-06-10T19:33:23.970Z,12.60
2019-06-10T19:35:53.868Z,15.17
2019-06-10T19:38:25.802Z,10.60
2019-06-10T19:40:55.863Z,9.13
2019-06-10T19:43:25.476Z,12.00
2019-06-10T19:45:55.345Z,11.80
2019-06-10T19:48:24.948Z,9.17
2019-06-10T19:50:54.755Z,10.67
2019-06-10T19:53:24.596Z,10.53
2019-06-10T19:55:53.998Z,8.80
2019-06-10T19:58:23.728Z,11.73
2019-06-10T20:00:54.428Z,10.23
2019-06-10T20:03:24.817Z,9.30
2019-06-10T20:05:54.528Z,10.67
2019-06-10T20:08:24.544Z,9.67
2019-06-10T20:10:53.753Z,11.53
2019-06-10T20:13:23.243Z,12.60
2019-06-10T20:15:52.692Z,13.30
2019-06-10T20:18:22.686Z,11.80
2019-06-10T20:20:53.991Z,9.57
2019-06-10T20:23:23.096Z,10.67
2019-06-10T20:25:52.698Z,9.90
2019-06-10T20:28:22.490Z,12.57
2019-06-10T20:30:53.118Z,12.13
2019-06-10T20:33:36.352Z,14.17
2019-06-10T20:36:07.497Z,14.07
2019-06-10T20:38:35.466Z,10.20
2019-06-10T20:41:04.759Z,11.47
2019-06-10T20:43:34.081Z,13.37
2019-06-10T20:46:05.903Z,10.93
2019-06-10T20:48:34.137Z,16.73
2019-06-10T20:51:03.482Z,14.13
2019-06-10T20:53:33.846Z,11.37
2019-06-10T20:56:03.981Z,12.33
2019-06-10T20:58:33.437Z,10.40
2019-06-10T21:01:04.597Z,10.90
2019-06-10T21:03:33.510Z,10.33
2019-06-10T21:06:04.339Z,9.87
2019-06-10T21:08:34.032Z,9.77
2019-06-10T21:11:03.348Z,14.37
2019-06-10T21:13:33.110Z,12.93
2019-06-10T21:16:03.691Z,11.00
2019-06-10T21:18:33.335Z,15.70
2019-06-10T21:21:02.507Z,15.37
2019-06-10T21:23:31.832Z,14.07
2019-06-10T21:26:02.868Z,14.03
2019-06-10T21:28:32.725Z,16.73
2019-06-10T21:31:02.756Z,13.47
2019-06-10T21:33:33.273Z,23.77
2019-06-10T21:36:03.938Z,16.33
2019-06-10T21:38:33.324Z,19.37
2019-06-10T21:41:03.238Z,19.53
2019-06-10T21:43:33.222Z,19.57
2019-06-10T21:46:03.613Z,19.60
2019-06-10T21:48:33.266Z,22.23
2019-06-10T21:51:02.615Z,20.53
2019-06-10T21:53:31.905Z,21.60
2019-06-10T21:56:01.131Z,22.97
2019-06-10T21:58:32.639Z,19.23
2019-06-10T22:01:12.045Z,22.17
2019-06-10T22:03:32.341Z,21.80
2019-06-10T22:06:01.520Z,20.87
2019-06-10T22:08:32.731Z,20.13
2019-06-10T22:11:02.517Z,20.13
2019-06-10T22:13:32.855Z,22.90
2019-06-10T22:16:03.300Z,21.60
2019-06-10T22:18:32.661Z,19.93
2019-06-10T22:21:02.878Z,24.90
2019-06-10T22:23:33.108Z,30.60
2019-06-10T22:26:02.880Z,19.40
2019-06-10T22:28:32.812Z,22.87
2019-06-10T22:31:16.025Z,19.20
2019-06-10T22:33:33.192Z,19.80
2019-06-10T22:36:02.525Z,24.57
2019-06-10T22:38:32.868Z,22.07
2019-06-10T22:41:03.171Z,22.23
2019-06-10T22:43:32.872Z,20.17
2019-06-10T22:46:04.036Z,20.63
2019-06-10T22:48:33.369Z,20.23
2019-06-10T22:51:02.818Z,19.20
2019-06-10T22:53:33.338Z,19.53
2019-06-10T22:56:03.040Z,21.17
2019-06-10T22:58:32.401Z,20.00
2019-06-10T23:01:04.034Z,24.33
2019-06-10T23:03:32.474Z,20.43
2019-06-10T23:06:02.666Z,20.77
2019-06-10T23:08:33.382Z,19.73
2019-06-10T23:11:02.988Z,22.13
2019-06-10T23:13:32.412Z,22.33
2019-06-10T23:16:02.599Z,21.93
2019-06-10T23:18:32.118Z,22.40
2019-06-10T23:21:04.070Z,24.37
2019-06-10T23:23:32.640Z,18.63
2019-06-10T23:26:02.969Z,25.17
2019-06-10T23:28:32.816Z,24.87
2019-06-10T23:31:04.888Z,20.17
2019-06-10T23:33:33.168Z,23.60
2019-06-10T23:36:03.935Z,18.37
2019-06-10T23:38:33.534Z,21.87
2019-06-10T23:41:03.811Z,19.13
2019-06-10T23:43:33.284Z,23.47
2019-06-10T23:46:04.370Z,22.20
2019-06-10T23:48:33.401Z,19.30
2019-06-10T23:51:04.690Z,24.57
2019-06-10T23:53:33.581Z,21.67
2019-06-10T23:56:04.808Z,23.53
2019-06-10T23:58:33.849Z,22.70
